GPS, Tunerstudio, Raspberry Pi

For discussion of Phil Tobin's Tuner Studio software (Only about the tuning software itself, not about how to tune or firmware features)

Moderator: LT401Vette

Re: GPS, Tunerstudio, Raspberry Pi

Postby VLC-05L » Fri Jan 05, 2018 10:36 pm

LT401Vette wrote:In this thread, he was having trouble, then got it working:
viewtopic.php?f=122&t=67961

If you open the port in Mini term, do you get data?


Yes if I open the port in the Mini terminal the GPS data comes through.
CB70 12V 3cyl 993cc Daihatsu | MS2X Sequential Fuel and Spark | Flex Fuel Launch Control | Raspberry Pi Dash
User avatar
VLC-05L
Experienced MS/Extra'er
 
Posts: 202
Joined: Wed Jan 21, 2015 3:11 am
Location: Australia

Re: GPS, Tunerstudio, Raspberry Pi

Postby LT401Vette » Sun Jan 07, 2018 11:36 am

So, the comms must be working..

Can you post a sample of the data you are getting?
Phil Tobin
EFI Analytics, helping to simplify EFI
Next Generation tuning software.
Supporting all MegaSquirt versions and firmwares.
http://www.TunerStudio.com
http://www.efiAnalytics.com/MegaLogViewer/
Support the firmware running your engine:
http://www.msextra.com/doc/donations.html
User avatar
LT401Vette
Super MS/Extra'er
 
Posts: 10408
Joined: Sat Jul 16, 2005 8:07 am
Location: Moorseville, NC

Re: GPS, Tunerstudio, Raspberry Pi

Postby VLC-05L » Sun Jan 07, 2018 3:01 pm

So this is a section of the log coming through the mini terminal in Tuner Studio:
$GPGGA,083829.000,3258.4117,S,15139.3301,E,1,10,0.85,29.0,M,25.7,M,,*4F

$GPGSA,A,3,13,29,15,10,05,26,25,20,18,21,,,1.57,0.85,1.33*0F

$GPRMC,083829.000,A,3258.4117,S,15139.3301,E,0.01,54.36,061217,,,A*4C

$GPZDA,083829.000,06,12,2017,,*5F


$GPGGA,083830.000,3258.4118,S,15139.3300,E,1,10,0.85,29.1,M,25.7,M,,*48

$GPGSA,A,3,13,29,15,10,05,26,25,20,18,21,,,1.57,0.85,1.33*0F

$GPGSV,4,1,14,20,77,134,28,29,73,091,36,21,47,239,23,18,35,318,17*7F

$GPGSV,4,2,14,15,34,055,43,25,29,344,29,26,25,236,18,05,24,136,48*7C

$GPGSV,4,3,14,13,24,091,46,10,06,320,28,16,04,213,,12,03,011,16*7D

$GPGSV,4,4,14,51,,,,193,,,*43

$GPRMC,083830.000,A,3258.4118,S,15139.3300,E,0.01,181.40,061217,,,A*72

$GPZDA,083830.000,06,12,2017,,*57


$GPGGA,083831.000,3258.4118,S,15139.3299,E,1,10,0.85,29.2,M,25.7,M,,*4B

$GPGSA,A,3,13,29,15,10,05,26,25,20,18,21,,,1.58,0.85,1.33*00

$GPRMC,083831.000,A,3258.4118,S,15139.3299,E,0.03,23.61,061217,,,A*4A

$GPZDA,083831.000,06,12,2017,,*56


$GPGGA,083832.000,3258.4119,S,15139.3299,E,1,10,0.85,29.3,M,25.7,M,,*48

$GPGSA,A,3,13,29,15,10,05,26,25,20,18,21,,,1.58,0.85,1.33*00

$GPRMC,083832.000,A,3258.4119,S,15139.3299,E,0.03,40.98,061217,,,A*4B

$GPZDA,083832.000,06,12,2017,,*55


$GPGGA,083833.000,3258.4119,S,15139.3298,E,1,10,0.85,29.5,M,25.7,M,,*4E

$GPGSA,A,3,13,29,15,10,05,26,25,20,18,21,,,1.58,0.85,1.33*00

$GPRMC,083833.000,A,3258.4119,S,15139.3298,E,0.01,45.42,061217,,,A*4B

$GPZDA,083833.000,06,12,2017,,*54


$GPGGA,083834.000,3258.4120,S,15139.3299,E,1,10,0.85,29.6,M,25.7,M,,*41

$GPGSA,A,3,13,29,15,10,05,26,25,20,18,21,,,1.58,0.85,1.33*00

$GPRMC,083834.000,A,3258.4120,S,15139.3299,E,0.03,98.53,061217,,,A*45

$GPZDA,083834.000,06,12,2017,,*53


$GPGGA,083835.000,3258.4120,S,15139.3298,E,1,10,0.85,29.7,M,25.7,M,,*40

$GPGSA,A,3,13,29,15,10,05,26,25,20,18,21,,,1.58,0.85,1.33*00

$GPGSV,4,1,14,20,77,134,26,29,73,091,36,21,47,239,21,18,35,318,21*76

$GPGSV,4,2,14,15,34,055,43,25,29,344,29,26,25,236,15,05,24,136,48*71

$GPGSV,4,3,14,13,24,091,46,10,06,320,28,16,04,213,,12,03,011,15*7E

$GPGSV,4,4,14,39,,,,193,,,*4D

$GPRMC,083835.000,A,3258.4120,S,15139.3298,E,0.01,128.47,061217,,,A*78

$GPZDA,083835.000,06,12,2017,,*52


$GPGGA,083836.000,3258.4121,S,15139.3298,E,1,10,0.85,29.8,M,25.7,M,,*4D

$GPGSA,A,3,13,29,15,10,05,26,25,20,18,21,,,1.57,0.85,1.33*0F

$GPRMC,083836.000,A,3258.4121,S,15139.3298,E,0.01,155.78,061217,,,A*7C

$GPZDA,083836.000,06,12,2017,,*51


$GPGGA,083837.000,3258.4121,S,15139.3297,E,1,10,0.85,29.8,M,25.7,M,,*43

$GPGSA,A,3,13,29,15,10,05,26,25,20,18,21,,,1.58,0.85,1.33*00

$GPRMC,083837.000,A,3258.4121,S,15139.3297,E,0.01,309.56,061217,,,A*75

$GPZDA,083837.000,06,12,2017,,*50



And coming through the Linux Terminal I got:
$GPGGA,084812.000,3258.4105,S,15139.3339,E,1,10,0.86,33.5,M,25.7,M,,*45
$GPGSA,A,3,13,29,15,10,05,26,25,20,18,21,,,1.60,0.86,1.35*0E
$GPRMC,084812.000,A,3258.4105,S,15139.3339,E,0.01,36.97,061217,,,A*44
$GPZDA,084812.000,06,12,2017,,*50
$GPGGA,084813.000,3258.4105,S,15139.3339,E,1,10,0.85,33.6,M,25.7,M,,*44
$GPGSA,A,3,13,29,15,10,05,26,25,20,18,21,,,1.59,0.85,1.35*07
$GPRMC,084813.000,A,3258.4105,S,15139.3339,E,0.01,87.64,061217,,,A*43
$GPZDA,084813.000,06,12,2017,,*51
$GPGGA,084814.000,3258.4106,S,15139.3339,E,1,10,0.85,33.6,M,25.7,M,,*40
$GPGSA,A,3,13,29,15,10,05,26,25,20,18,21,,,1.59,0.85,1.35*07
$GPRMC,084814.000,A,3258.4106,S,15139.3339,E,0.01,58.70,061217,,,A*40
$GPZDA,084814.000,06,12,2017,,*56
$GPGGA,084815.000,3258.4107,S,15139.3340,E,1,10,0.85,33.7,M,25.7,M,,*4F
$GPGSA,A,3,13,29,15,10,05,26,25,20,18,21,,,1.59,0.85,1.35*07
$GPGSV,4,1,13,20,72,139,38,29,70,077,39,21,50,233,20,50,50,347,26*7D
$GPGSV,4,2,13,18,39,315,28,15,37,059,46,13,26,096,43,26,26,240,14*70
$GPGSV,4,3,13,25,24,346,25,05,20,136,49,10,10,318,31,16,07,215,*7B
$GPGSV,4,4,13,193,,,*40
$GPRMC,084815.000,A,3258.4107,S,15139.3340,E,0.02,58.26,061217,,,A*4E
$GPZDA,084815.000,06,12,2017,,*57
$GPGGA,084816.000,3258.4107,S,15139.3340,E,1,10,0.85,33.8,M,25.7,M,,*43
$GPGSA,A,3,13,29,15,10,05,26,25,20,18,21,,,1.59,0.85,1.35*07
$GPRMC,084816.000,A,3258.4107,S,15139.3340,E,0.01,124.58,061217,,,A*7D
$GPZDA,084816.000,06,12,2017,,*54
$GPGGA,084817.000,3258.4108,S,15139.3340,E,1,10,0.85,33.8,M,25.7,M,,*4D
$GPGSA,A,3,13,29,15,10,05,26,25,20,18,21,,,1.59,0.85,1.35*07
$GPRMC,084817.000,A,3258.4108,S,15139.3340,E,0.01,120.84,061217,,,A*76
$GPZDA,084817.000,06,12,2017,,*55
$GPGGA,084818.000,3258.4108,S,15139.3341,E,1,10,0.85,33.9,M,25.7,M,,*42
$GPGSA,A,3,13,29,15,10,05,26,25,20,18,21,,,1.60,0.85,1.35*0D
$GPRMC,084818.000,A,3258.4108,S,15139.3341,E,0.02,93.93,061217,,,A*44
$GPZDA,084818.000,06,12,2017,,*5A
$GPGGA,084819.000,3258.4109,S,15139.3342,E,1,10,0.85,34.0,M,25.7,M,,*4F
$GPGSA,A,3,13,29,15,10,05,26,25,20,18,21,,,1.59,0.85,1.35*07
$GPRMC,084819.000,A,3258.4109,S,15139.3342,E,0.01,227.15,061217,,,A*77
$GPZDA,084819.000,06,12,2017,,*5B
$GPGGA,084820.000,3258.4109,S,15139.3342,E,1,10,0.85,34.1,M,25.7,M,,*44
$GPGSA,A,3,13,29,15,10,05,26,25,20,18,21,,,1.59,0.85,1.35*07
$GPGSV,4,1,13,20,72,139,38,29,70,077,39,21,50,233,21,50,50,347,*78
$GPGSV,4,2,13,18,39,315,28,15,37,059,46,13,26,096,43,26,26,240,16*72
$GPGSV,4,3,13,25,24,346,27,05,20,136,49,10,10,318,31,16,07,215,*79
$GPGSV,4,4,13,193,,,*40
$GPRMC,084820.000,A,3258.4109,S,15139.3342,E,0.01,144.01,061217,,,A*7E
$GPZDA,084820.000,06,12,2017,,*51
$GPGGA,084821.000,3258.4110,S,15139.3342,E,1,10
CB70 12V 3cyl 993cc Daihatsu | MS2X Sequential Fuel and Spark | Flex Fuel Launch Control | Raspberry Pi Dash
User avatar
VLC-05L
Experienced MS/Extra'er
 
Posts: 202
Joined: Wed Jan 21, 2015 3:11 am
Location: Australia

Re: GPS, Tunerstudio, Raspberry Pi

Postby LT401Vette » Mon Jan 08, 2018 12:07 pm

From what I can tell it looks Ok..

It seems I may need to set up a Pi3 with a GPS for testing here.
Phil Tobin
EFI Analytics, helping to simplify EFI
Next Generation tuning software.
Supporting all MegaSquirt versions and firmwares.
http://www.TunerStudio.com
http://www.efiAnalytics.com/MegaLogViewer/
Support the firmware running your engine:
http://www.msextra.com/doc/donations.html
User avatar
LT401Vette
Super MS/Extra'er
 
Posts: 10408
Joined: Sat Jul 16, 2005 8:07 am
Location: Moorseville, NC

Re: GPS, Tunerstudio, Raspberry Pi

Postby VLC-05L » Tue Jan 09, 2018 10:08 pm

LT401Vette wrote:From what I can tell it looks Ok..

It seems I may need to set up a Pi3 with a GPS for testing here.


That would be awesome! I have tried a lot of things and just cant get it going.
CB70 12V 3cyl 993cc Daihatsu | MS2X Sequential Fuel and Spark | Flex Fuel Launch Control | Raspberry Pi Dash
User avatar
VLC-05L
Experienced MS/Extra'er
 
Posts: 202
Joined: Wed Jan 21, 2015 3:11 am
Location: Australia

Previous

Return to Tuner Studio

Who is online

Users browsing this forum: No registered users and 1 guest